sensor_id;sensor_type;location;lat;lon;timestamp;temperature;humidity
74220;DHT22;62580;54.416;11.120;2022-11-24T00:02:16;17.70;48.80
74220;DHT22;62580;54.416;11.120;2022-11-24T00:12:18;17.70;48.80
74220;DHT22;62580;54.416;11.120;2022-11-24T00:22:20;17.70;48.80
74220;DHT22;62580;54.416;11.120;2022-11-24T00:32:20;17.80;48.90
74220;DHT22;62580;54.416;11.120;2022-11-24T00:42:22;17.80;48.90
74220;DHT22;62580;54.416;11.120;2022-11-24T00:52:23;17.70;48.90
74220;DHT22;62580;54.416;11.120;2022-11-24T01:02:25;17.70;48.90
74220;DHT22;62580;54.416;11.120;2022-11-24T01:12:26;17.80;48.90
74220;DHT22;62580;54.416;11.120;2022-11-24T01:22:28;17.80;48.90
74220;DHT22;62580;54.416;11.120;2022-11-24T01:32:29;17.80;48.90
74220;DHT22;62580;54.416;11.120;2022-11-24T01:42:41;17.80;48.90
74220;DHT22;62580;54.416;11.120;2022-11-24T01:52:45;17.80;49.00
74220;DHT22;62580;54.416;11.120;2022-11-24T02:02:49;17.70;48.80
74220;DHT22;62580;54.416;11.120;2022-11-24T02:12:52;17.80;48.80
74220;DHT22;62580;54.416;11.120;2022-11-24T02:23:00;17.80;48.80
74220;DHT22;62580;54.416;11.120;2022-11-24T02:33:04;17.80;48.80
74220;DHT22;62580;54.416;11.120;2022-11-24T02:43:09;17.80;48.80
74220;DHT22;62580;54.416;11.120;2022-11-24T02:53:11;17.80;48.90
74220;DHT22;62580;54.416;11.120;2022-11-24T03:03:12;17.80;48.90
74220;DHT22;62580;54.416;11.120;2022-11-24T03:13:14;17.80;48.90
74220;DHT22;62580;54.416;11.120;2022-11-24T03:23:15;17.80;48.90
74220;DHT22;62580;54.416;11.120;2022-11-24T03:33:17;17.80;48.90
74220;DHT22;62580;54.416;11.120;2022-11-24T03:43:17;17.80;48.80
74220;DHT22;62580;54.416;11.120;2022-11-24T03:53:19;17.80;48.90
74220;DHT22;62580;54.416;11.120;2022-11-24T04:03:21;17.80;48.90
74220;DHT22;62580;54.416;11.120;2022-11-24T04:13:24;17.80;48.90
74220;DHT22;62580;54.416;11.120;2022-11-24T04:23:25;17.80;48.90
74220;DHT22;62580;54.416;11.120;2022-11-24T04:33:27;17.80;49.00
74220;DHT22;62580;54.416;11.120;2022-11-24T04:43:27;17.70;49.00
74220;DHT22;62580;54.416;11.120;2022-11-24T04:53:29;17.80;49.00
74220;DHT22;62580;54.416;11.120;2022-11-24T05:03:30;17.70;49.00
74220;DHT22;62580;54.416;11.120;2022-11-24T05:13:32;17.80;48.90
74220;DHT22;62580;54.416;11.120;2022-11-24T05:23:33;17.80;49.00
74220;DHT22;62580;54.416;11.120;2022-11-24T05:33:35;17.80;48.90
74220;DHT22;62580;54.416;11.120;2022-11-24T05:43:35;17.80;49.00
74220;DHT22;62580;54.416;11.120;2022-11-24T05:53:37;17.80;48.90
74220;DHT22;62580;54.416;11.120;2022-11-24T06:03:38;17.80;49.10
74220;DHT22;62580;54.416;11.120;2022-11-24T06:13:42;17.80;49.00
74220;DHT22;62580;54.416;11.120;2022-11-24T06:23:42;17.80;49.00
74220;DHT22;62580;54.416;11.120;2022-11-24T06:33:44;17.80;49.10
74220;DHT22;62580;54.416;11.120;2022-11-24T06:43:45;17.80;49.00
74220;DHT22;62580;54.416;11.120;2022-11-24T06:53:47;17.80;49.10
74220;DHT22;62580;54.416;11.120;2022-11-24T07:03:48;17.70;49.00
74220;DHT22;62580;54.416;11.120;2022-11-24T07:13:50;17.70;49.10
74220;DHT22;62580;54.416;11.120;2022-11-24T07:23:52;17.80;49.10
74220;DHT22;62580;54.416;11.120;2022-11-24T07:33:55;17.70;49.00
74220;DHT22;62580;54.416;11.120;2022-11-24T07:43:55;17.80;49.10
74220;DHT22;62580;54.416;11.120;2022-11-24T07:53:57;17.80;49.10
74220;DHT22;62580;54.416;11.120;2022-11-24T08:03:59;17.80;49.00
74220;DHT22;62580;54.416;11.120;2022-11-24T08:14:01;17.80;49.00
74220;DHT22;62580;54.416;11.120;2022-11-24T08:24:02;17.80;49.00
74220;DHT22;62580;54.416;11.120;2022-11-24T08:34:05;17.80;49.10
74220;DHT22;62580;54.416;11.120;2022-11-24T08:44:06;17.80;49.10
74220;DHT22;62580;54.416;11.120;2022-11-24T08:54:09;17.70;49.10
74220;DHT22;62580;54.416;11.120;2022-11-24T09:04:10;17.80;49.10
74220;DHT22;62580;54.416;11.120;2022-11-24T09:14:11;17.80;49.10
74220;DHT22;62580;54.416;11.120;2022-11-24T09:24:12;17.70;49.10
74220;DHT22;62580;54.416;11.120;2022-11-24T09:34:15;17.80;49.10
74220;DHT22;62580;54.416;11.120;2022-11-24T09:44:40;17.80;49.10
74220;DHT22;62580;54.416;11.120;2022-11-24T09:54:51;17.80;49.00
74220;DHT22;62580;54.416;11.120;2022-11-24T10:04:53;17.80;49.10
74220;DHT22;62580;54.416;11.120;2022-11-24T10:15:04;17.80;49.70
74220;DHT22;62580;54.416;11.120;2022-11-24T10:25:19;17.70;49.10
74220;DHT22;62580;54.416;11.120;2022-11-24T10:35:27;17.80;49.20
74220;DHT22;62580;54.416;11.120;2022-11-24T10:45:28;17.80;49.10
74220;DHT22;62580;54.416;11.120;2022-11-24T10:55:57;17.80;49.10
74220;DHT22;62580;54.416;11.120;2022-11-24T11:06:02;17.80;49.10
74220;DHT22;62580;54.416;11.120;2022-11-24T11:16:22;17.80;49.20
74220;DHT22;62580;54.416;11.120;2022-11-24T11:26:31;17.80;49.30
74220;DHT22;62580;54.416;11.120;2022-11-24T11:36:35;17.80;49.30
74220;DHT22;62580;54.416;11.120;2022-11-24T11:46:38;17.80;49.30
74220;DHT22;62580;54.416;11.120;2022-11-24T11:56:43;17.80;49.20
74220;DHT22;62580;54.416;11.120;2022-11-24T12:07:15;17.80;49.10
74220;DHT22;62580;54.416;11.120;2022-11-24T12:17:28;17.80;49.10
74220;DHT22;62580;54.416;11.120;2022-11-24T12:27:37;17.80;49.10
74220;DHT22;62580;54.416;11.120;2022-11-24T12:37:51;17.80;49.20
74220;DHT22;62580;54.416;11.120;2022-11-24T12:48:12;17.80;49.30
74220;DHT22;62580;54.416;11.120;2022-11-24T12:58:23;17.80;49.30
74220;DHT22;62580;54.416;11.120;2022-11-24T13:08:24;17.80;49.40
74220;DHT22;62580;54.416;11.120;2022-11-24T13:28:59;17.80;49.30
74220;DHT22;62580;54.416;11.120;2022-11-24T13:39:02;17.80;49.20
74220;DHT22;62580;54.416;11.120;2022-11-24T13:49:12;17.80;49.30
74220;DHT22;62580;54.416;11.120;2022-11-24T13:59:15;17.80;49.20
74220;DHT22;62580;54.416;11.120;2022-11-24T14:09:23;17.80;49.30
74220;DHT22;62580;54.416;11.120;2022-11-24T14:19:25;17.80;49.30
74220;DHT22;62580;54.416;11.120;2022-11-24T14:29:27;17.80;49.30
74220;DHT22;62580;54.416;11.120;2022-11-24T14:39:27;17.80;49.40
74220;DHT22;62580;54.416;11.120;2022-11-24T14:49:30;17.80;49.30
74220;DHT22;62580;54.416;11.120;2022-11-24T14:59:34;17.80;49.50
74220;DHT22;62580;54.416;11.120;2022-11-24T15:09:47;17.80;49.40
74220;DHT22;62580;54.416;11.120;2022-11-24T15:19:52;17.80;49.30
74220;DHT22;62580;54.416;11.120;2022-11-24T15:29:55;17.80;49.30
74220;DHT22;62580;54.416;11.120;2022-11-24T15:39:55;17.80;49.20
74220;DHT22;62580;54.416;11.120;2022-11-24T15:49:57;17.80;49.50
74220;DHT22;62580;54.416;11.120;2022-11-24T15:59:58;17.80;49.40
74220;DHT22;62580;54.416;11.120;2022-11-24T16:10:00;17.80;49.60
74220;DHT22;62580;54.416;11.120;2022-11-24T16:20:01;17.80;49.40
74220;DHT22;62580;54.416;11.120;2022-11-24T16:30:04;17.80;49.40
74220;DHT22;62580;54.416;11.120;2022-11-24T16:40:07;17.80;49.50
74220;DHT22;62580;54.416;11.120;2022-11-24T16:50:10;17.80;49.50
74220;DHT22;62580;54.416;11.120;2022-11-24T17:00:12;17.80;49.40
74220;DHT22;62580;54.416;11.120;2022-11-24T17:10:15;17.80;49.40
74220;DHT22;62580;54.416;11.120;2022-11-24T17:20:15;17.80;49.40
74220;DHT22;62580;54.416;11.120;2022-11-24T17:30:17;17.80;49.40
74220;DHT22;62580;54.416;11.120;2022-11-24T17:40:18;17.80;49.50
74220;DHT22;62580;54.416;11.120;2022-11-24T17:50:20;17.80;49.50
74220;DHT22;62580;54.416;11.120;2022-11-24T18:00:21;17.80;49.50
74220;DHT22;62580;54.416;11.120;2022-11-24T18:10:24;17.80;49.50
74220;DHT22;62580;54.416;11.120;2022-11-24T18:20:24;17.90;49.50
74220;DHT22;62580;54.416;11.120;2022-11-24T18:30:26;17.80;49.40
74220;DHT22;62580;54.416;11.120;2022-11-24T18:40:27;17.90;49.50
74220;DHT22;62580;54.416;11.120;2022-11-24T18:50:29;17.90;49.50
74220;DHT22;62580;54.416;11.120;2022-11-24T19:00:29;17.90;49.50
74220;DHT22;62580;54.416;11.120;2022-11-24T19:10:34;17.90;49.50
74220;DHT22;62580;54.416;11.120;2022-11-24T19:20:35;17.90;49.50
74220;DHT22;62580;54.416;11.120;2022-11-24T19:30:37;17.90;49.50
74220;DHT22;62580;54.416;11.120;2022-11-24T19:40:37;17.90;49.60
74220;DHT22;62580;54.416;11.120;2022-11-24T19:50:39;17.90;49.60
74220;DHT22;62580;54.416;11.120;2022-11-24T20:00:40;17.80;49.50
74220;DHT22;62580;54.416;11.120;2022-11-24T20:10:42;17.80;49.60
74220;DHT22;62580;54.416;11.120;2022-11-24T20:20:43;17.90;49.60
74220;DHT22;62580;54.416;11.120;2022-11-24T20:30:44;17.90;49.60
74220;DHT22;62580;54.416;11.120;2022-11-24T20:40:45;17.90;49.60
74220;DHT22;62580;54.416;11.120;2022-11-24T20:50:47;17.90;49.60
74220;DHT22;62580;54.416;11.120;2022-11-24T21:00:48;17.90;49.60
74220;DHT22;62580;54.416;11.120;2022-11-24T21:10:53;17.90;49.60
74220;DHT22;62580;54.416;11.120;2022-11-24T21:20:54;17.90;49.60
74220;DHT22;62580;54.416;11.120;2022-11-24T21:31:03;17.80;49.60
74220;DHT22;62580;54.416;11.120;2022-11-24T21:41:05;17.90;49.70
74220;DHT22;62580;54.416;11.120;2022-11-24T21:51:10;17.90;49.60
74220;DHT22;62580;54.416;11.120;2022-11-24T22:01:12;17.90;49.70
74220;DHT22;62580;54.416;11.120;2022-11-24T22:11:15;17.90;49.60
74220;DHT22;62580;54.416;11.120;2022-11-24T22:21:18;17.90;49.70
74220;DHT22;62580;54.416;11.120;2022-11-24T22:31:21;17.90;49.80
74220;DHT22;62580;54.416;11.120;2022-11-24T22:41:22;17.90;49.70
74220;DHT22;62580;54.416;11.120;2022-11-24T22:51:26;17.90;49.70
74220;DHT22;62580;54.416;11.120;2022-11-24T23:01:28;17.90;49.60
74220;DHT22;62580;54.416;11.120;2022-11-24T23:11:33;17.90;49.70
74220;DHT22;62580;54.416;11.120;2022-11-24T23:21:36;17.90;49.70
74220;DHT22;62580;54.416;11.120;2022-11-24T23:31:38;17.80;49.60
74220;DHT22;62580;54.416;11.120;2022-11-24T23:41:39;17.90;49.70
74220;DHT22;62580;54.416;11.120;2022-11-24T23:51:41;17.90;49.70
